Minerva Libra — SVAA7 — position and weather

sailwx.info

Track history (hours):
 
Tides and Currents Weather Stations Pressure Air Temp Water Temp Dewpoint Dewpoint Depression Visibility Wind Speed Wind Dir Waves Ship Positions

Minerva Libra

Last reported at 2016-May-22 07:05 UTC. Time now 2016-May-25 16:59 UTC.
Position N 30°57' E 032°19'.

Length 250 m; draft 12 m.

Type: Tanker. MMSI: 240766000.

Date/timePositionNaut miles runAvg speedWind from/ knotsBaromVisibWave heightAir tempDewpointWater temp
2016-May-22 07:05N 30°57' E 032°19'5 9.5
2016-May-22 06:34N 31°02' E 032°19'9 9.2
2016-May-22 05:33N 31°12' E 032°18'8 7.5
2016-May-22 04:33N 31°19' E 032°21'4 4.2
2016-May-22 03:33N 31°23' E 032°20'0 0.1
2016-May-22 02:32N 31°23' E 032°20'0 0.0
2016-May-22 01:32N 31°23' E 032°20'0 0.0
2016-May-21 23:17N 31°23' E 032°20'0 0.0
2016-May-21 20:32N 31°23' E 032°20'0 0.0
2016-May-21 19:26N 31°23' E 032°20'0 0.1
2016-May-21 18:29N 31°22' E 032°20'6 1.5
2016-May-21 14:34N 31°27' E 032°16'1712.9
2016-May-21 13:16N 31°40' E 032°03'1513.3
2016-May-21 12:08N 31°48' E 031°48'4913.3
2016-May-21 08:29N 32°07' E 030°56'1613.3
2016-May-21 07:16N 32°13' E 030°38'1013.6
2016-May-21 06:32N 32°16' E 030°27'  
2016-May-18 23:33N 36°12' E 015°17'1414.5
2016-May-18 22:33N 36°16' E 015°00'1514.7
2016-May-18 21:33N 36°20' E 014°43'1414.5
2016-May-18 20:33N 36°24' E 014°25'1414.3
2016-May-18 19:33N 36°28' E 014°08'1514.7
2016-May-18 18:33N 36°33' E 013°51'1515.0
2016-May-18 17:33N 36°37' E 013°33'1515.1
2016-May-18 16:33N 36°42' E 013°15'1515.0
2016-May-18 15:33N 36°46' E 012°57'1514.9
2016-May-18 14:33N 36°50' E 012°39'1514.5
2016-May-18 13:33N 36°55' E 012°22'1414.3
2016-May-18 12:33N 36°59' E 012°05'1414.1
2016-May-18 11:33N 37°04' E 011°48'1414.4
2016-May-18 10:33N 37°09' E 011°32'1514.6
2016-May-18 09:33N 37°18' E 011°17'3114.7
2016-May-18 07:28N 37°32' E 010°43'8714.6
2016-May-18 01:33N 37°53' E 008°57'30114.3
2016-May-17 04:33N 37°10' E 002°41'1514.5
2016-May-17 03:33N 37°08' E 002°23'1614.7
2016-May-17 02:28N 37°06' E 002°03'1415.1
2016-May-17 01:33N 37°05' E 001°46'1515.3
2016-May-17 00:33N 37°01' E 001°27'1515.0
2016-May-16 23:33N 36°57' E 001°09'1514.8
2016-May-16 22:33N 36°54' E 000°51'1414.5
2016-May-16 21:33N 36°50' E 000°34'1514.6
2016-May-16 20:33N 36°47' E 000°16'1514.5
2016-May-16 19:33N 36°43' W 000°02'1414.4
2016-May-16 18:33N 36°39' W 000°19'1414.2
2016-May-16 17:33N 36°35' W 000°36'22414.9
2016-May-16 02:31N 36°01' W 005°11'1717.2
2016-May-16 01:33N 35°57' W 005°31'10515.0
2016-May-15 18:33N 35°49' W 007°40'1514.6
2016-May-15 17:33N 35°48' W 007°58'  
2016-May-13 07:31N 34°51' W 025°11'2015.0
2016-May-13 06:11N 34°50' W 025°35'  
Track history (hours):
 
Tides and Currents Weather Stations Pressure Air Temp Water Temp Dewpoint Dewpoint Depression Visibility Wind Speed Wind Dir Waves Ship Positions

Minerva Libra

Last reported at 2016-May-22 07:05 UTC. Time now 2016-May-25 16:59 UTC.
Position N 30°57' E 032°19'.

Length 250 m; draft 12 m.

Type: Tanker. MMSI: 240766000.

Date/timePositionNaut miles runAvg speedWind from/ knotsBaromVisibWave heightAir tempDewpointWater temp
2016-May-22 07:05N 30°57' E 032°19'5 9.5
2016-May-22 06:34N 31°02' E 032°19'9 9.2
2016-May-22 05:33N 31°12' E 032°18'8 7.5
2016-May-22 04:33N 31°19' E 032°21'4 4.2
2016-May-22 03:33N 31°23' E 032°20'0 0.1
2016-May-22 02:32N 31°23' E 032°20'0 0.0
2016-May-22 01:32N 31°23' E 032°20'0 0.0
2016-May-21 23:17N 31°23' E 032°20'0 0.0
2016-May-21 20:32N 31°23' E 032°20'0 0.0
2016-May-21 19:26N 31°23' E 032°20'0 0.1
2016-May-21 18:29N 31°22' E 032°20'6 1.5
2016-May-21 14:34N 31°27' E 032°16'1712.9
2016-May-21 13:16N 31°40' E 032°03'1513.3
2016-May-21 12:08N 31°48' E 031°48'4913.3
2016-May-21 08:29N 32°07' E 030°56'1613.3
2016-May-21 07:16N 32°13' E 030°38'1013.6
2016-May-21 06:32N 32°16' E 030°27'  
2016-May-18 23:33N 36°12' E 015°17'1414.5
2016-May-18 22:33N 36°16' E 015°00'1514.7
2016-May-18 21:33N 36°20' E 014°43'1414.5
2016-May-18 20:33N 36°24' E 014°25'1414.3
2016-May-18 19:33N 36°28' E 014°08'1514.7
2016-May-18 18:33N 36°33' E 013°51'1515.0
2016-May-18 17:33N 36°37' E 013°33'1515.1
2016-May-18 16:33N 36°42' E 013°15'1515.0
2016-May-18 15:33N 36°46' E 012°57'1514.9
2016-May-18 14:33N 36°50' E 012°39'1514.5
2016-May-18 13:33N 36°55' E 012°22'1414.3
2016-May-18 12:33N 36°59' E 012°05'1414.1
2016-May-18 11:33N 37°04' E 011°48'1414.4
2016-May-18 10:33N 37°09' E 011°32'1514.6
2016-May-18 09:33N 37°18' E 011°17'3114.7
2016-May-18 07:28N 37°32' E 010°43'8714.6
2016-May-18 01:33N 37°53' E 008°57'30114.3
2016-May-17 04:33N 37°10' E 002°41'1514.5
2016-May-17 03:33N 37°08' E 002°23'1614.7
2016-May-17 02:28N 37°06' E 002°03'1415.1
2016-May-17 01:33N 37°05' E 001°46'1515.3
2016-May-17 00:33N 37°01' E 001°27'1515.0
2016-May-16 23:33N 36°57' E 001°09'1514.8
2016-May-16 22:33N 36°54' E 000°51'1414.5
2016-May-16 21:33N 36°50' E 000°34'1514.6
2016-May-16 20:33N 36°47' E 000°16'1514.5
2016-May-16 19:33N 36°43' W 000°02'1414.4
2016-May-16 18:33N 36°39' W 000°19'1414.2
2016-May-16 17:33N 36°35' W 000°36'22414.9
2016-May-16 02:31N 36°01' W 005°11'1717.2
2016-May-16 01:33N 35°57' W 005°31'10515.0
2016-May-15 18:33N 35°49' W 007°40'1514.6
2016-May-15 17:33N 35°48' W 007°58'  
2016-May-13 07:31N 34°51' W 025°11'2015.0
2016-May-13 06:11N 34°50' W 025°35'  

Dump ship's entire track history